Eden, North Carolina
Current Conditions -  °F | °C
As of 7:35 PM on Monday 24 Nov 2014 (Local Time) from KSIF Reporting Station
Clear Clear  
Wind Chill: 54°   Ceiling: Unl
Heat Index: 54°   Visibility: 10mi
Dew Point: 52°   Wind: 0mph
Humidity: 92%   Direction: NA
Pressure: 29.81"   Gusts: NA
Location:  36.5°N, 79.74°W
Report Text: KSIF 250035Z AUTO 00000KT 10SM CLR 12/11 A2981 RMK AO2 T01230110
Loading
Personal Weather Stations






























Interactive Weather Map New forecast layout! Learn more

10-Day Weather Forecast

Advertisements
Track Severe Weather on mobile